Terminal Aerodrome Forecast
Issued by NWS

Home | Current Version | Previous Version | Graphics & Text | Print | Product List | Glossary On
Versions: 1 2 3 4 5 6 7 8 9 10 11 12 13 14 15 16 17 18 19 20 21 22 23 24 25 26 27 28 29 30 31
000
FTUS43 KLOT 291454 AAA
TAFORD
TAF AMD
KORD 291454Z 2915/3018 09009KT P6SM SCT030 SCT250
     FM300200 11003KT P6SM FEW050 SCT250
     FM301500 24005KT P6SM SCT040 BKN080=

USA.gov is the U.S. government's official web portal to all federal, state and local government web resources and services.